sensor_id;sensor_type;location;lat;lon;timestamp;pressure;altitude;pressure_sealevel;temperature;humidity
49104;BME280;34915;52.926;11.116;2023-08-17T00:00:59;101904.84;;;21.28;59.04
49104;BME280;34915;52.926;11.116;2023-08-17T00:03:24;101905.78;;;21.17;58.91
49104;BME280;34915;52.926;11.116;2023-08-17T00:05:50;101903.81;;;21.14;59.62
49104;BME280;34915;52.926;11.116;2023-08-17T00:08:15;101897.94;;;21.09;59.88
49104;BME280;34915;52.926;11.116;2023-08-17T00:10:42;101902.34;;;21.06;59.46
49104;BME280;34915;52.926;11.116;2023-08-17T00:13:08;101894.59;;;21.17;59.15
49104;BME280;34915;52.926;11.116;2023-08-17T00:15:34;101884.44;;;21.04;60.13
49104;BME280;34915;52.926;11.116;2023-08-17T00:18:00;101884.63;;;20.93;60.51
49104;BME280;34915;52.926;11.116;2023-08-17T00:20:26;101887.34;;;20.97;60.48
49104;BME280;34915;52.926;11.116;2023-08-17T00:22:51;101893.34;;;20.95;60.47
49104;BME280;34915;52.926;11.116;2023-08-17T00:25:17;101893.25;;;21.02;60.68
49104;BME280;34915;52.926;11.116;2023-08-17T00:27:42;101890.81;;;21.04;60.69
49104;BME280;34915;52.926;11.116;2023-08-17T00:30:10;101885.81;;;20.92;61.31
49104;BME280;34915;52.926;11.116;2023-08-17T00:32:36;101892.50;;;20.98;60.43
49104;BME280;34915;52.926;11.116;2023-08-17T00:35:01;101883.47;;;20.91;61.04
49104;BME280;34915;52.926;11.116;2023-08-17T00:37:27;101882.94;;;20.99;60.99
49104;BME280;34915;52.926;11.116;2023-08-17T00:39:53;101883.09;;;20.89;61.25
49104;BME280;34915;52.926;11.116;2023-08-17T00:42:18;101877.22;;;20.79;61.20
49104;BME280;34915;52.926;11.116;2023-08-17T00:44:44;101878.66;;;20.91;61.10
49104;BME280;34915;52.926;11.116;2023-08-17T00:47:10;101880.34;;;20.85;61.22
49104;BME280;34915;52.926;11.116;2023-08-17T00:49:35;101870.84;;;20.79;61.66
49104;BME280;34915;52.926;11.116;2023-08-17T00:52:01;101882.00;;;20.82;62.00
49104;BME280;34915;52.926;11.116;2023-08-17T00:54:29;101877.94;;;20.87;61.56
49104;BME280;34915;52.926;11.116;2023-08-17T00:56:54;101878.78;;;20.84;61.73
49104;BME280;34915;52.926;11.116;2023-08-17T00:59:21;101875.63;;;20.82;61.88
49104;BME280;34915;52.926;11.116;2023-08-17T01:01:48;101869.63;;;20.83;61.89
49104;BME280;34915;52.926;11.116;2023-08-17T01:04:13;101864.81;;;20.84;61.68
49104;BME280;34915;52.926;11.116;2023-08-17T01:06:39;101872.25;;;20.94;61.93
49104;BME280;34915;52.926;11.116;2023-08-17T01:09:05;101870.34;;;20.88;62.66
49104;BME280;34915;52.926;11.116;2023-08-17T01:11:41;101870.72;;;20.90;61.99
49104;BME280;34915;52.926;11.116;2023-08-17T01:16:42;101858.91;;;21.05;61.25
49104;BME280;34915;52.926;11.116;2023-08-17T01:19:12;101855.63;;;21.10;60.77
49104;BME280;34915;52.926;11.116;2023-08-17T01:21:42;101848.59;;;21.02;61.36
49104;BME280;34915;52.926;11.116;2023-08-17T01:24:10;101862.59;;;20.99;61.26
49104;BME280;34915;52.926;11.116;2023-08-17T01:26:36;101854.72;;;20.94;61.57
49104;BME280;34915;52.926;11.116;2023-08-17T01:29:02;101858.28;;;20.94;61.37
49104;BME280;34915;52.926;11.116;2023-08-17T01:31:31;101856.59;;;20.73;62.58
49104;BME280;34915;52.926;11.116;2023-08-17T01:34:04;101851.50;;;20.95;61.58
49104;BME280;34915;52.926;11.116;2023-08-17T01:36:42;101851.97;;;20.90;62.13
49104;BME280;34915;52.926;11.116;2023-08-17T01:39:11;101850.34;;;20.93;61.82
49104;BME280;34915;52.926;11.116;2023-08-17T01:41:39;101851.59;;;20.88;61.76
49104;BME280;34915;52.926;11.116;2023-08-17T01:44:08;101844.78;;;20.62;63.00
49104;BME280;34915;52.926;11.116;2023-08-17T01:46:34;101844.28;;;20.71;62.48
49104;BME280;34915;52.926;11.116;2023-08-17T01:49:00;101847.66;;;20.86;62.24
49104;BME280;34915;52.926;11.116;2023-08-17T01:51:26;101842.94;;;20.79;62.44
49104;BME280;34915;52.926;11.116;2023-08-17T01:53:51;101845.38;;;20.77;62.64
49104;BME280;34915;52.926;11.116;2023-08-17T01:56:17;101848.31;;;20.66;62.63
49104;BME280;34915;52.926;11.116;2023-08-17T01:58:43;101855.22;;;20.58;63.10
49104;BME280;34915;52.926;11.116;2023-08-17T02:01:09;101858.31;;;20.64;63.13
49104;BME280;34915;52.926;11.116;2023-08-17T02:03:37;101859.22;;;20.57;63.29
49104;BME280;34915;52.926;11.116;2023-08-17T02:06:04;101854.56;;;20.47;63.43
49104;BME280;34915;52.926;11.116;2023-08-17T02:08:30;101873.59;;;20.56;63.67
49104;BME280;34915;52.926;11.116;2023-08-17T02:10:55;101864.53;;;20.48;63.96
49104;BME280;34915;52.926;11.116;2023-08-17T02:13:21;101863.25;;;20.52;63.98
49104;BME280;34915;52.926;11.116;2023-08-17T02:15:46;101853.22;;;20.59;63.69
49104;BME280;34915;52.926;11.116;2023-08-17T02:18:12;101844.78;;;20.62;63.46
49104;BME280;34915;52.926;11.116;2023-08-17T02:20:38;101846.91;;;20.55;63.74
49104;BME280;34915;52.926;11.116;2023-08-17T02:23:03;101839.47;;;20.44;64.20
49104;BME280;34915;52.926;11.116;2023-08-17T02:25:29;101837.78;;;20.50;63.77
49104;BME280;34915;52.926;11.116;2023-08-17T02:28:04;101833.97;;;20.37;65.25
49104;BME280;34915;52.926;11.116;2023-08-17T02:30:29;101835.53;;;20.42;64.91
49104;BME280;34915;52.926;11.116;2023-08-17T02:32:55;101826.28;;;20.48;64.35
49104;BME280;34915;52.926;11.116;2023-08-17T02:35:21;101837.47;;;20.45;64.56
49104;BME280;34915;52.926;11.116;2023-08-17T02:37:46;101833.31;;;20.57;64.11
49104;BME280;34915;52.926;11.116;2023-08-17T02:40:12;101836.25;;;20.46;64.56
49104;BME280;34915;52.926;11.116;2023-08-17T02:42:37;101837.44;;;20.48;64.37
49104;BME280;34915;52.926;11.116;2023-08-17T02:45:06;101823.59;;;20.41;64.21
49104;BME280;34915;52.926;11.116;2023-08-17T02:47:32;101827.38;;;20.55;64.49
49104;BME280;34915;52.926;11.116;2023-08-17T02:49:58;101835.94;;;20.40;65.16
49104;BME280;34915;52.926;11.116;2023-08-17T02:52:23;101832.75;;;20.38;65.25
49104;BME280;34915;52.926;11.116;2023-08-17T02:54:49;101817.22;;;20.41;64.63
49104;BME280;34915;52.926;11.116;2023-08-17T02:57:14;101820.75;;;20.45;64.29
49104;BME280;34915;52.926;11.116;2023-08-17T02:59:40;101829.91;;;20.45;65.06
49104;BME280;34915;52.926;11.116;2023-08-17T03:02:05;101835.44;;;20.49;65.01
49104;BME280;34915;52.926;11.116;2023-08-17T03:04:31;101831.81;;;20.52;64.32
49104;BME280;34915;52.926;11.116;2023-08-17T03:06:58;101829.22;;;20.65;63.99
49104;BME280;34915;52.926;11.116;2023-08-17T03:09:23;101831.59;;;20.66;64.67
49104;BME280;34915;52.926;11.116;2023-08-17T03:11:49;101829.81;;;20.52;64.56
49104;BME280;34915;52.926;11.116;2023-08-17T03:14:14;101829.84;;;20.49;64.85
49104;BME280;34915;52.926;11.116;2023-08-17T03:16:40;101836.53;;;20.55;64.61
49104;BME280;34915;52.926;11.116;2023-08-17T03:19:05;101829.97;;;20.38;65.51
49104;BME280;34915;52.926;11.116;2023-08-17T03:21:33;101839.28;;;20.28;65.48
49104;BME280;34915;52.926;11.116;2023-08-17T03:23:59;101840.91;;;20.26;66.72
49104;BME280;34915;52.926;11.116;2023-08-17T03:26:25;101836.44;;;20.32;65.79
49104;BME280;34915;52.926;11.116;2023-08-17T03:28:50;101834.81;;;20.34;65.95
49104;BME280;34915;52.926;11.116;2023-08-17T03:31:16;101835.91;;;20.44;65.91
49104;BME280;34915;52.926;11.116;2023-08-17T03:33:41;101839.78;;;20.50;65.47
49104;BME280;34915;52.926;11.116;2023-08-17T03:36:07;101828.53;;;20.57;65.44
49104;BME280;34915;52.926;11.116;2023-08-17T03:38:32;101841.06;;;20.45;65.87
49104;BME280;34915;52.926;11.116;2023-08-17T03:40:58;101838.06;;;20.29;66.32
49104;BME280;34915;52.926;11.116;2023-08-17T03:43:23;101835.28;;;20.29;65.98
49104;BME280;34915;52.926;11.116;2023-08-17T03:45:50;101841.31;;;20.20;66.19
49104;BME280;34915;52.926;11.116;2023-08-17T03:48:16;101848.38;;;20.32;66.03
49104;BME280;34915;52.926;11.116;2023-08-17T03:50:41;101856.97;;;20.11;66.89
49104;BME280;34915;52.926;11.116;2023-08-17T03:53:07;101865.38;;;20.07;67.79
49104;BME280;34915;52.926;11.116;2023-08-17T03:55:32;101880.19;;;20.01;68.27
49104;BME280;34915;52.926;11.116;2023-08-17T03:57:59;101896.94;;;19.97;68.08
49104;BME280;34915;52.926;11.116;2023-08-17T04:00:24;101914.88;;;19.96;67.84
49104;BME280;34915;52.926;11.116;2023-08-17T04:02:50;101944.41;;;19.90;68.51
49104;BME280;34915;52.926;11.116;2023-08-17T04:05:16;101968.06;;;19.71;69.38
49104;BME280;34915;52.926;11.116;2023-08-17T04:07:41;101979.97;;;19.72;68.68
49104;BME280;34915;52.926;11.116;2023-08-17T04:10:07;101994.34;;;19.67;69.02
49104;BME280;34915;52.926;11.116;2023-08-17T04:12:33;101994.38;;;19.59;68.94
49104;BME280;34915;52.926;11.116;2023-08-17T04:14:58;101997.16;;;19.59;68.93
49104;BME280;34915;52.926;11.116;2023-08-17T04:17:24;101997.94;;;19.67;69.66
49104;BME280;34915;52.926;11.116;2023-08-17T04:19:50;101994.69;;;19.72;70.07
49104;BME280;34915;52.926;11.116;2023-08-17T04:22:16;101984.34;;;19.73;70.83
49104;BME280;34915;52.926;11.116;2023-08-17T04:24:41;101996.72;;;19.65;71.61
49104;BME280;34915;52.926;11.116;2023-08-17T04:27:07;101992.78;;;19.58;72.25
49104;BME280;34915;52.926;11.116;2023-08-17T04:29:33;101976.66;;;19.32;72.12
49104;BME280;34915;52.926;11.116;2023-08-17T04:31:59;101983.41;;;19.35;72.86
49104;BME280;34915;52.926;11.116;2023-08-17T04:34:24;101981.00;;;19.37;73.21
49104;BME280;34915;52.926;11.116;2023-08-17T04:36:50;101977.00;;;19.41;72.16
49104;BME280;34915;52.926;11.116;2023-08-17T04:39:16;101977.13;;;19.23;72.60
49104;BME280;34915;52.926;11.116;2023-08-17T04:41:42;101968.28;;;19.36;73.55
49104;BME280;34915;52.926;11.116;2023-08-17T04:44:08;101971.94;;;19.25;72.74
49104;BME280;34915;52.926;11.116;2023-08-17T04:46:33;101964.41;;;19.19;73.83
49104;BME280;34915;52.926;11.116;2023-08-17T04:48:59;101953.31;;;19.15;73.34
49104;BME280;34915;52.926;11.116;2023-08-17T04:51:24;101959.31;;;19.10;73.63
49104;BME280;34915;52.926;11.116;2023-08-17T04:53:50;101955.75;;;19.03;74.40
49104;BME280;34915;52.926;11.116;2023-08-17T04:56:16;101949.44;;;18.95;74.30
49104;BME280;34915;52.926;11.116;2023-08-17T04:58:41;101945.94;;;18.84;74.89
49104;BME280;34915;52.926;11.116;2023-08-17T05:01:07;101949.53;;;18.81;74.89
49104;BME280;34915;52.926;11.116;2023-08-17T05:03:32;101945.19;;;18.73;75.01
49104;BME280;34915;52.926;11.116;2023-08-17T05:05:58;101950.00;;;18.61;74.35
49104;BME280;34915;52.926;11.116;2023-08-17T05:08:24;101951.19;;;18.64;74.64
49104;BME280;34915;52.926;11.116;2023-08-17T05:10:49;101934.91;;;18.62;75.10
49104;BME280;34915;52.926;11.116;2023-08-17T05:13:15;101936.13;;;18.40;74.71
49104;BME280;34915;52.926;11.116;2023-08-17T05:15:41;101925.81;;;18.41;75.47
49104;BME280;34915;52.926;11.116;2023-08-17T05:18:07;101921.88;;;18.34;74.59
49104;BME280;34915;52.926;11.116;2023-08-17T05:20:33;101913.19;;;18.22;74.99
49104;BME280;34915;52.926;11.116;2023-08-17T05:22:59;101905.25;;;18.17;74.87
49104;BME280;34915;52.926;11.116;2023-08-17T05:25:24;101912.03;;;18.05;75.32
49104;BME280;34915;52.926;11.116;2023-08-17T05:27:51;101905.31;;;17.95;74.86
49104;BME280;34915;52.926;11.116;2023-08-17T05:30:17;101903.75;;;17.94;75.28
49104;BME280;34915;52.926;11.116;2023-08-17T05:32:43;101901.34;;;17.96;75.25
49104;BME280;34915;52.926;11.116;2023-08-17T05:35:08;101900.94;;;17.87;74.90
49104;BME280;34915;52.926;11.116;2023-08-17T05:37:34;101908.88;;;17.85;74.43
49104;BME280;34915;52.926;11.116;2023-08-17T05:40:00;101892.63;;;17.59;74.80
49104;BME280;34915;52.926;11.116;2023-08-17T05:42:25;101895.03;;;17.67;74.38
49104;BME280;34915;52.926;11.116;2023-08-17T05:44:51;101899.78;;;17.56;75.28
49104;BME280;34915;52.926;11.116;2023-08-17T05:47:16;101902.97;;;17.51;74.43
49104;BME280;34915;52.926;11.116;2023-08-17T05:49:44;101895.44;;;17.45;74.66
49104;BME280;34915;52.926;11.116;2023-08-17T05:52:10;101892.66;;;17.41;74.72
49104;BME280;34915;52.926;11.116;2023-08-17T05:54:36;101881.53;;;17.30;74.27
49104;BME280;34915;52.926;11.116;2023-08-17T05:57:03;101885.09;;;17.27;74.53
49104;BME280;34915;52.926;11.116;2023-08-17T05:59:29;101875.59;;;17.18;75.25
49104;BME280;34915;52.926;11.116;2023-08-17T06:01:54;101872.03;;;17.21;74.95
49104;BME280;34915;52.926;11.116;2023-08-17T06:04:20;101859.72;;;17.15;75.58
49104;BME280;34915;52.926;11.116;2023-08-17T06:06:46;101854.97;;;17.12;75.22
49104;BME280;34915;52.926;11.116;2023-08-17T06:09:12;101853.78;;;17.02;74.72
49104;BME280;34915;52.926;11.116;2023-08-17T06:11:37;101849.81;;;16.96;75.38
49104;BME280;34915;52.926;11.116;2023-08-17T06:14:04;101855.75;;;16.94;75.69
49104;BME280;34915;52.926;11.116;2023-08-17T06:16:30;101853.38;;;16.96;74.85
49104;BME280;34915;52.926;11.116;2023-08-17T06:18:55;101839.50;;;16.82;75.50
49104;BME280;34915;52.926;11.116;2023-08-17T06:21:21;101840.69;;;16.81;75.34
49104;BME280;34915;52.926;11.116;2023-08-17T06:23:47;101835.53;;;16.83;75.13
49104;BME280;34915;52.926;11.116;2023-08-17T06:26:12;101834.38;;;16.91;74.23
49104;BME280;34915;52.926;11.116;2023-08-17T06:28:38;101834.38;;;16.95;75.51
49104;BME280;34915;52.926;11.116;2023-08-17T06:31:03;101827.25;;;17.04;75.10
49104;BME280;34915;52.926;11.116;2023-08-17T06:33:29;101845.06;;;17.07;74.87
49104;BME280;34915;52.926;11.116;2023-08-17T06:35:54;101839.91;;;17.05;75.37
49104;BME280;34915;52.926;11.116;2023-08-17T06:38:20;101841.50;;;17.06;75.21
49104;BME280;34915;52.926;11.116;2023-08-17T06:40:46;101845.06;;;17.03;75.65
49104;BME280;34915;52.926;11.116;2023-08-17T06:43:11;101843.88;;;17.12;75.07
49104;BME280;34915;52.926;11.116;2023-08-17T06:45:37;101848.25;;;17.16;75.35
49104;BME280;34915;52.926;11.116;2023-08-17T06:48:03;101855.78;;;17.16;75.48
49104;BME280;34915;52.926;11.116;2023-08-17T06:50:28;101858.16;;;17.17;75.81
49104;BME280;34915;52.926;11.116;2023-08-17T06:52:54;101853.00;;;17.16;75.38
49104;BME280;34915;52.926;11.116;2023-08-17T06:55:20;101856.97;;;17.25;74.84
49104;BME280;34915;52.926;11.116;2023-08-17T06:57:47;101870.81;;;17.29;75.19
49104;BME280;34915;52.926;11.116;2023-08-17T07:00:12;101874.03;;;17.38;74.98
49104;BME280;34915;52.926;11.116;2023-08-17T07:02:38;101879.97;;;17.36;75.43
49104;BME280;34915;52.926;11.116;2023-08-17T07:05:04;101877.59;;;17.38;74.85
49104;BME280;34915;52.926;11.116;2023-08-17T07:07:30;101883.94;;;17.35;75.01
49104;BME280;34915;52.926;11.116;2023-08-17T07:09:58;101872.84;;;17.39;75.49
49104;BME280;34915;52.926;11.116;2023-08-17T07:12:24;101871.25;;;17.45;75.13
49104;BME280;34915;52.926;11.116;2023-08-17T07:14:49;101880.38;;;17.42;75.37
49104;BME280;34915;52.926;11.116;2023-08-17T07:17:15;101886.31;;;17.44;75.27
49104;BME280;34915;52.926;11.116;2023-08-17T07:19:41;101891.47;;;17.49;75.25
49104;BME280;34915;52.926;11.116;2023-08-17T07:22:06;101887.09;;;17.48;74.53
49104;BME280;34915;52.926;11.116;2023-08-17T07:24:32;101882.72;;;17.54;74.78
49104;BME280;34915;52.926;11.116;2023-08-17T07:26:57;101882.72;;;17.58;75.34
49104;BME280;34915;52.926;11.116;2023-08-17T07:29:23;101870.06;;;17.67;74.48
49104;BME280;34915;52.926;11.116;2023-08-17T07:31:48;101866.09;;;17.68;74.58
49104;BME280;34915;52.926;11.116;2023-08-17T07:34:14;101859.72;;;17.61;73.94
49104;BME280;34915;52.926;11.116;2023-08-17T07:36:39;101855.38;;;17.60;74.64
49104;BME280;34915;52.926;11.116;2023-08-17T07:39:05;101853.38;;;17.60;75.20
49104;BME280;34915;52.926;11.116;2023-08-17T07:41:31;101862.09;;;17.59;74.76
49104;BME280;34915;52.926;11.116;2023-08-17T07:43:56;101863.69;;;17.70;74.13
49104;BME280;34915;52.926;11.116;2023-08-17T07:46:22;101860.50;;;17.79;74.41
49104;BME280;34915;52.926;11.116;2023-08-17T07:48:47;101849.41;;;17.72;73.93
49104;BME280;34915;52.926;11.116;2023-08-17T07:51:14;101858.53;;;17.80;73.58
49104;BME280;34915;52.926;11.116;2023-08-17T07:53:39;101860.53;;;17.68;74.42
49104;BME280;34915;52.926;11.116;2023-08-17T07:56:05;101847.81;;;17.75;73.75
49104;BME280;34915;52.926;11.116;2023-08-17T07:58:31;101840.28;;;17.82;73.71
49104;BME280;34915;52.926;11.116;2023-08-17T08:00:57;101838.31;;;17.72;74.45
49104;BME280;34915;52.926;11.116;2023-08-17T08:03:22;101839.47;;;17.85;74.43
49104;BME280;34915;52.926;11.116;2023-08-17T08:05:48;101845.41;;;17.87;74.34
49104;BME280;34915;52.926;11.116;2023-08-17T08:08:13;101842.25;;;17.92;75.01
49104;BME280;34915;52.926;11.116;2023-08-17T08:10:40;101856.09;;;18.03;74.72
49104;BME280;34915;52.926;11.116;2023-08-17T08:13:06;101846.97;;;18.06;74.68
49104;BME280;34915;52.926;11.116;2023-08-17T08:15:33;101857.66;;;18.11;74.50
49104;BME280;34915;52.926;11.116;2023-08-17T08:17:58;101856.41;;;18.26;74.11
49104;BME280;34915;52.926;11.116;2023-08-17T08:20:24;101841.78;;;18.12;74.73
49104;BME280;34915;52.926;11.116;2023-08-17T08:22:49;101847.72;;;18.14;75.61
49104;BME280;34915;52.926;11.116;2023-08-17T08:25:15;101840.88;;;18.32;74.73
49104;BME280;34915;52.926;11.116;2023-08-17T08:27:41;101841.66;;;18.37;74.57
49104;BME280;34915;52.926;11.116;2023-08-17T08:30:06;101844.81;;;18.39;75.02
49104;BME280;34915;52.926;11.116;2023-08-17T08:32:32;101844.78;;;18.49;74.32
49104;BME280;34915;52.926;11.116;2023-08-17T08:34:58;101845.16;;;18.55;74.23
49104;BME280;34915;52.926;11.116;2023-08-17T08:37:24;101843.97;;;18.56;74.74
49104;BME280;34915;52.926;11.116;2023-08-17T08:39:51;101850.31;;;18.49;74.57
49104;BME280;34915;52.926;11.116;2023-08-17T08:42:18;101847.16;;;18.54;73.92
49104;BME280;34915;52.926;11.116;2023-08-17T08:44:44;101852.72;;;18.54;74.22
49104;BME280;34915;52.926;11.116;2023-08-17T08:47:11;101855.13;;;18.45;74.35
49104;BME280;34915;52.926;11.116;2023-08-17T08:49:57;101859.09;;;18.51;74.73
49104;BME280;34915;52.926;11.116;2023-08-17T08:52:35;101860.22;;;18.64;74.58
49104;BME280;34915;52.926;11.116;2023-08-17T08:55:14;101859.81;;;18.66;74.21
49104;BME280;34915;52.926;11.116;2023-08-17T08:57:41;101869.34;;;18.69;74.42
49104;BME280;34915;52.926;11.116;2023-08-17T09:00:07;101870.50;;;18.71;74.28
49104;BME280;34915;52.926;11.116;2023-08-17T09:02:35;101866.94;;;18.71;74.01
49104;BME280;34915;52.926;11.116;2023-08-17T09:05:02;101859.81;;;18.66;74.27
49104;BME280;34915;52.926;11.116;2023-08-17T09:07:29;101866.56;;;18.65;74.87
49104;BME280;34915;52.926;11.116;2023-08-17T09:09:58;101861.81;;;18.66;74.19
49104;BME280;34915;52.926;11.116;2023-08-17T09:12:24;101868.13;;;18.70;73.95
49104;BME280;34915;52.926;11.116;2023-08-17T09:14:50;101872.09;;;18.72;75.09
49104;BME280;34915;52.926;11.116;2023-08-17T09:17:26;101876.41;;;18.80;74.67
49104;BME280;34915;52.926;11.116;2023-08-17T09:19:52;101872.03;;;18.83;74.58
49104;BME280;34915;52.926;11.116;2023-08-17T09:22:25;101875.66;;;18.76;74.01
49104;BME280;34915;52.926;11.116;2023-08-17T09:24:51;101876.47;;;18.70;74.39
49104;BME280;34915;52.926;11.116;2023-08-17T09:27:17;101882.44;;;18.68;75.15
49104;BME280;34915;52.926;11.116;2023-08-17T09:29:43;101878.50;;;18.62;75.35
49104;BME280;34915;52.926;11.116;2023-08-17T09:32:11;101885.63;;;18.67;74.24
49104;BME280;34915;52.926;11.116;2023-08-17T09:34:37;101882.09;;;18.62;74.70
49104;BME280;34915;52.926;11.116;2023-08-17T09:37:05;101878.09;;;18.63;75.12
49104;BME280;34915;52.926;11.116;2023-08-17T09:39:31;101881.28;;;18.66;75.17
49104;BME280;34915;52.926;11.116;2023-08-17T09:41:57;101881.22;;;18.73;74.42
49104;BME280;34915;52.926;11.116;2023-08-17T09:44:24;101879.16;;;18.84;74.55
49104;BME280;34915;52.926;11.116;2023-08-17T09:46:50;101881.13;;;18.87;74.30
49104;BME280;34915;52.926;11.116;2023-08-17T09:49:17;101879.56;;;18.86;74.43
49104;BME280;34915;52.926;11.116;2023-08-17T09:51:44;101881.47;;;18.96;73.93
49104;BME280;34915;52.926;11.116;2023-08-17T09:54:20;101877.97;;;18.85;74.22
49104;BME280;34915;52.926;11.116;2023-08-17T09:56:49;101879.97;;;18.84;74.50
49104;BME280;34915;52.926;11.116;2023-08-17T09:59:15;101877.59;;;18.83;74.74
49104;BME280;34915;52.926;11.116;2023-08-17T10:01:42;101885.09;;;18.89;74.55
49104;BME280;34915;52.926;11.116;2023-08-17T10:04:09;101876.28;;;18.98;74.01
49104;BME280;34915;52.926;11.116;2023-08-17T10:06:38;101881.53;;;18.89;74.46
49104;BME280;34915;52.926;11.116;2023-08-17T10:09:05;101877.56;;;18.86;74.68
49104;BME280;34915;52.926;11.116;2023-08-17T10:11:35;101869.22;;;18.86;74.37
49104;BME280;34915;52.926;11.116;2023-08-17T10:14:09;101864.47;;;18.83;75.15
49104;BME280;34915;52.926;11.116;2023-08-17T10:19:21;101869.16;;;18.97;75.02
49104;BME280;34915;52.926;11.116;2023-08-17T10:22:16;101859.16;;;19.03;74.43
49104;BME280;34915;52.926;11.116;2023-08-17T10:24:44;101857.13;;;19.14;74.44
49104;BME280;34915;52.926;11.116;2023-08-17T10:27:11;101850.78;;;19.10;74.49
49104;BME280;34915;52.926;11.116;2023-08-17T10:29:38;101844.75;;;19.19;73.59
49104;BME280;34915;52.926;11.116;2023-08-17T10:32:06;101845.63;;;19.05;74.28
49104;BME280;34915;52.926;11.116;2023-08-17T10:34:35;101854.41;;;19.00;74.37
49104;BME280;34915;52.926;11.116;2023-08-17T10:37:01;101854.44;;;18.96;74.39
49104;BME280;34915;52.926;11.116;2023-08-17T10:39:28;101861.59;;;18.98;74.63
49104;BME280;34915;52.926;11.116;2023-08-17T10:41:54;101862.06;;;18.89;74.47
49104;BME280;34915;52.926;11.116;2023-08-17T10:47:30;101869.53;;;18.99;75.36
49104;BME280;34915;52.926;11.116;2023-08-17T10:52:39;101874.25;;;19.06;74.80
49104;BME280;34915;52.926;11.116;2023-08-17T10:55:05;101871.53;;;18.99;74.39
49104;BME280;34915;52.926;11.116;2023-08-17T11:00:14;101860.38;;;19.02;75.22
49104;BME280;34915;52.926;11.116;2023-08-17T11:02:43;101851.53;;;19.18;74.35
49104;BME280;34915;52.926;11.116;2023-08-17T11:05:11;101850.31;;;19.19;74.18
49104;BME280;34915;52.926;11.116;2023-08-17T11:07:44;101846.28;;;19.27;73.90
49104;BME280;34915;52.926;11.116;2023-08-17T11:12:44;101840.25;;;19.32;73.95
49104;BME280;34915;52.926;11.116;2023-08-17T11:15:11;101851.25;;;19.46;74.15
49104;BME280;34915;52.926;11.116;2023-08-17T11:17:37;101847.75;;;19.39;74.54
49104;BME280;34915;52.926;11.116;2023-08-17T11:20:06;101852.13;;;19.40;74.23
49104;BME280;34915;52.926;11.116;2023-08-17T11:22:34;101847.78;;;19.35;74.71
49104;BME280;34915;52.926;11.116;2023-08-17T11:25:00;101848.81;;;19.52;74.38
49104;BME280;34915;52.926;11.116;2023-08-17T11:27:26;101857.75;;;19.33;75.07
49104;BME280;34915;52.926;11.116;2023-08-17T11:29:52;101862.16;;;19.30;75.33
49104;BME280;34915;52.926;11.116;2023-08-17T11:32:19;101856.97;;;19.32;75.91
49104;BME280;34915;52.926;11.116;2023-08-17T11:34:45;101854.13;;;19.39;74.92
49104;BME280;34915;52.926;11.116;2023-08-17T11:37:13;101863.56;;;19.52;75.13
49104;BME280;34915;52.926;11.116;2023-08-17T11:39:39;101858.09;;;19.38;74.81
49104;BME280;34915;52.926;11.116;2023-08-17T11:42:06;101855.00;;;19.29;75.53
49104;BME280;34915;52.926;11.116;2023-08-17T11:44:33;101851.72;;;19.41;75.01
49104;BME280;34915;52.926;11.116;2023-08-17T11:46:59;101846.56;;;19.40;75.17
49104;BME280;34915;52.926;11.116;2023-08-17T11:49:24;101851.72;;;19.41;75.48
49104;BME280;34915;52.926;11.116;2023-08-17T11:51:53;101855.22;;;19.52;75.11
49104;BME280;34915;52.926;11.116;2023-08-17T11:54:18;101864.13;;;19.78;74.19
49104;BME280;34915;52.926;11.116;2023-08-17T11:56:44;101858.56;;;19.78;74.61
49104;BME280;34915;52.926;11.116;2023-08-17T11:59:11;101864.97;;;19.75;74.42
49104;BME280;34915;52.926;11.116;2023-08-17T12:01:43;101863.63;;;19.86;74.30
49104;BME280;34915;52.926;11.116;2023-08-17T12:04:09;101866.34;;;19.94;73.80
49104;BME280;34915;52.926;11.116;2023-08-17T12:06:37;101864.38;;;19.90;73.42
49104;BME280;34915;52.926;11.116;2023-08-17T12:09:08;101858.03;;;19.90;73.54
49104;BME280;34915;52.926;11.116;2023-08-17T12:11:33;101860.56;;;19.77;73.83
49104;BME280;34915;52.926;11.116;2023-08-17T12:13:59;101852.19;;;19.77;73.31
49104;BME280;34915;52.926;11.116;2023-08-17T12:16:24;101857.72;;;19.81;73.08
49104;BME280;34915;52.926;11.116;2023-08-17T12:18:52;101862.63;;;19.70;73.21
49104;BME280;34915;52.926;11.116;2023-08-17T12:21:21;101857.88;;;19.67;73.23
49104;BME280;34915;52.926;11.116;2023-08-17T12:23:47;101857.00;;;19.73;73.45
49104;BME280;34915;52.926;11.116;2023-08-17T12:26:22;101867.78;;;19.71;73.48
49104;BME280;34915;52.926;11.116;2023-08-17T12:28:49;101865.81;;;19.68;73.50
49104;BME280;34915;52.926;11.116;2023-08-17T12:31:21;101858.59;;;19.74;73.68
49104;BME280;34915;52.926;11.116;2023-08-17T12:33:46;101857.47;;;19.65;73.55
49104;BME280;34915;52.926;11.116;2023-08-17T12:36:12;101853.91;;;19.64;72.91
49104;BME280;34915;52.926;11.116;2023-08-17T12:38:37;101855.06;;;19.70;72.62
49104;BME280;34915;52.926;11.116;2023-08-17T12:41:09;101850.75;;;19.62;72.94
49104;BME280;34915;52.926;11.116;2023-08-17T12:43:35;101845.03;;;19.76;72.76
49104;BME280;34915;52.926;11.116;2023-08-17T12:46:00;101846.75;;;19.67;72.82
49104;BME280;34915;52.926;11.116;2023-08-17T12:48:26;101850.66;;;19.73;73.44
49104;BME280;34915;52.926;11.116;2023-08-17T12:50:51;101855.47;;;19.65;73.11
49104;BME280;34915;52.926;11.116;2023-08-17T12:53:17;101855.50;;;19.62;73.61